DIRECCIÓN GENERAL DE AERONÁUTICA CIVIL
DIRECCIÓN METEOROLÓGICA DE CHILE
INFORMACIÓN METAR Y TAF

FIR SANTIAGO

Estación: SCSE
METAR SCSE 271500Z 27008KT 9999 SCT016 17/11 Q1017=

TAF SCSE 271014Z 2712/2812 30005KT 9999 OVC015 TX19/2718Z TN11/2810Z BECMG 2715/2717 29012KT SCT020 BECMG 2802/2804 33005KT BKN010 BECMG 2805/2807 VRB02KT=

Estación: SCER
NIL=

NIL=

Estación: SCRD
METAR SCRD 271500Z 15003KT 9999 SCT015 SCT200 16/11 Q1018=

TAF SCRD 271018Z 2712/2724 33005KT 3000 BR OVC005 TX22/2719Z TN13/ 2712Z TEMPO 2712/2714 0500 FG OVC002 BECMG 2715/2717 34010KT 8000 SCT015 BECMG 2718/2720 CAVOK=

Estación: SCVM
METAR SCVM 271500Z 22004KT 9999 OVC015 15/11 Q1018=

TAF SCVM 271015Z 2712/2812 34005KT 9999 OVC010 TX19/2719Z TN10/2810Z BECMG 2716/2718 33010KT SCT020 BECMG 2719/2721 CAVOK BECMG 2802/2804 VRB02KT BKN010=

Estación: SCTB
METAR SCTB 271500Z 25005KT 9999 SKC 24/13 Q1017=

TAF SCTB 271019Z 2712/2724 VRB02KT CAVOK TX29/2718Z TN13/2712Z BECMG 2715/2717 21005KT=

Estación: SCEL
METAR SCEL 271500Z 16010KT 120V200 CAVOK 25/07 Q1016 NOSIG=

TAF SCEL 271015Z 2712/2812 16005KT CAVOK TX28/2719Z TN12/2810Z BECMG 2715/2717 19008KT BECMG 2718/2720 21015KT BECMG 2801/2803 17010KT TEMPO 2805/2812 VRB02KT=

Estación: SCSN
METAR SCSN 271500Z 28006KT 7000 OVC012 13/11 Q1019=

TAF SCSN 271018Z 2712/2724 VRB02KT 8000 OVC007 TX16/2718Z TN12/2712Z BECMG 2716/2718 33010KT 9999 SCT015=

Estación: SCRG
METAR SCRG 271500Z 15012KT CAVOK 23/13 Q1016=

TAF SCRG 271019Z 2712/2724 18005KT CAVOK TX26/2718Z TN12/2712Z BECMG 2715/2717 19012KT=

Estación: SCIC
METAR SCIC 271500Z VRB03KT CAVOK 24/11 Q1015=

TAF SCIC 271020Z 2712/2724 20004KT CAVOK TX26/2718Z TN14/2712Z BECMG 2715/2717 21010KT=

Estación: SCCH
METAR SCCH 271500Z 00000KT 9999 FEW100 BKN200 19/12 Q1016=

TAF SCCH 271020Z 2712/2724 20005KT CAVOK TX25/2719Z TN11/2712Z BECMG 2715/2717 21012KT 9999 SCT030 BKN100=

Estación: SCIE
METAR SCIE 271500Z 23010KT 9999 SCT027 OVC200 15/09 Q1018=

TAF SCIE 271016Z 2712/2812 22005KT 9999 FEW010 TX22/2718Z TN09/2810Z BECMG 2715/2717 26015KT 9999 SCT010 BECMG 2803/2805 24005KT BECMG 2804/2806 SCT010 BKN100=

Estación: SCGE
METAR SCGE 271500Z 19005KT 9999 BKN030 OVC066 17/11 Q1017=

TAF SCGE 271020Z 2712/2724 19005KT CAVOK TX24/2719Z TN11/2712Z BECMG 2714/2716 20012KT 9999 SCT020 BKN100=


Volver